createdAt,value
2023-03-21T00:20:20.707Z,3.55
2023-03-21T00:22:48.570Z,3.30
2023-03-21T00:25:16.711Z,3.40
2023-03-21T00:28:00.961Z,4.20
2023-03-21T00:30:32.292Z,3.70
2023-03-21T00:33:05.983Z,4.22
2023-03-21T00:36:06.802Z,3.50
2023-03-21T00:38:26.123Z,3.60
2023-03-21T00:40:54.035Z,3.78
2023-03-21T00:43:29.881Z,3.45
2023-03-21T00:45:58.895Z,3.72
2023-03-21T00:48:27.748Z,3.80
2023-03-21T00:50:59.325Z,3.88
2023-03-21T00:53:27.606Z,4.32
2023-03-21T00:55:55.489Z,4.05
2023-03-21T00:58:23.316Z,3.50
2023-03-21T01:00:51.230Z,3.72
2023-03-21T01:03:25.001Z,3.95
2023-03-21T01:06:04.897Z,4.03
2023-03-21T01:08:50.631Z,3.83
2023-03-21T01:11:22.550Z,4.13
2023-03-21T01:13:56.112Z,4.30
2023-03-21T01:16:28.309Z,3.72
2023-03-21T01:18:56.343Z,4.55
2023-03-21T01:21:24.341Z,4.30
2023-03-21T01:23:53.765Z,4.20
2023-03-21T01:26:22.031Z,4.07
2023-03-21T01:28:49.893Z,4.50
2023-03-21T01:31:18.883Z,4.65
2023-03-21T01:33:47.515Z,4.50
2023-03-21T01:36:21.104Z,4.18
2023-03-21T01:38:50.301Z,3.90
2023-03-21T01:41:33.532Z,4.05
2023-03-21T01:44:11.006Z,4.35
2023-03-21T01:46:51.769Z,4.45
2023-03-21T01:49:34.155Z,4.30
2023-03-21T01:52:12.787Z,4.40
2023-03-21T01:54:42.873Z,4.30
2023-03-21T01:57:17.432Z,4.45
2023-03-21T01:59:50.020Z,4.53
2023-03-21T02:02:23.090Z,4.47
2023-03-21T02:04:56.040Z,4.35
2023-03-21T02:07:28.829Z,4.72
2023-03-21T02:09:59.010Z,4.22
2023-03-21T02:12:28.505Z,4.40
2023-03-21T02:14:57.033Z,3.95
2023-03-21T02:17:33.906Z,4.97
2023-03-21T02:20:46.655Z,3.75
2023-03-21T02:23:37.882Z,4.50
2023-03-21T02:26:42.006Z,4.35
2023-03-21T02:29:29.438Z,3.80
2023-03-21T02:32:20.022Z,4.82
2023-03-21T02:35:16.991Z,3.83
2023-03-21T02:37:59.944Z,3.55
2023-03-21T02:40:33.959Z,4.28
2023-03-21T02:43:09.335Z,3.83
2023-03-21T02:45:52.710Z,3.63
2023-03-21T02:48:29.521Z,4.57
2023-03-21T02:51:03.252Z,4.20
2023-03-21T02:53:35.874Z,3.90
2023-03-21T02:56:10.880Z,4.50
2023-03-21T02:58:40.249Z,4.28
2023-03-21T03:01:09.163Z,4.10
2023-03-21T03:03:39.565Z,4.00
2023-03-21T03:06:17.026Z,4.03
2023-03-21T03:09:02.324Z,4.90
2023-03-21T03:11:33.821Z,4.93
2023-03-21T03:14:39.749Z,4.20
2023-03-21T03:17:15.387Z,4.63
2023-03-21T03:19:53.645Z,4.07
2023-03-21T03:22:27.707Z,4.40
2023-03-21T03:25:04.794Z,4.47
2023-03-21T03:27:44.713Z,4.25
2023-03-21T03:30:14.629Z,4.43
2023-03-21T03:32:46.952Z,4.60
2023-03-21T03:35:17.556Z,4.03
2023-03-21T03:37:48.261Z,4.43
2023-03-21T03:40:19.869Z,3.88
2023-03-21T03:42:50.457Z,3.63
2023-03-21T03:45:19.444Z,4.03
2023-03-21T03:47:57.463Z,4.38
2023-03-21T03:53:04.812Z,4.88
2023-03-21T03:55:36.956Z,4.35
2023-03-21T03:58:08.321Z,3.70
2023-03-21T04:00:42.640Z,4.80
2023-03-21T04:03:11.088Z,5.10
2023-03-21T04:05:39.005Z,3.88
2023-03-21T04:08:07.536Z,4.30
2023-03-21T04:10:37.004Z,4.00
2023-03-21T04:13:05.256Z,3.75
2023-03-21T04:15:33.095Z,3.85
2023-03-21T04:18:00.902Z,4.07
2023-03-21T04:20:36.516Z,4.05
2023-03-21T04:23:05.388Z,4.43
2023-03-21T04:25:38.651Z,4.13
2023-03-21T04:28:08.317Z,5.03
2023-03-21T04:30:37.374Z,3.85
2023-03-21T04:33:06.204Z,3.95
2023-03-21T04:35:37.065Z,4.18
2023-03-21T04:38:05.482Z,4.40
2023-03-21T04:40:33.351Z,4.30
2023-03-21T04:43:02.526Z,3.80
2023-03-21T04:45:30.761Z,4.15
2023-03-21T04:47:58.843Z,4.13
2023-03-21T04:50:26.780Z,4.40
2023-03-21T04:52:54.573Z,3.65
2023-03-21T04:55:22.980Z,4.50
2023-03-21T04:57:50.856Z,5.22
2023-03-21T05:00:21.051Z,4.28
2023-03-21T05:02:49.086Z,4.43
2023-03-21T05:05:16.967Z,4.82
2023-03-21T05:07:44.844Z,4.30
2023-03-21T05:10:13.360Z,4.00
2023-03-21T05:12:41.349Z,4.10
2023-03-21T05:15:10.670Z,4.40
2023-03-21T05:17:42.634Z,4.45
2023-03-21T05:20:12.055Z,5.05
2023-03-21T05:22:41.229Z,5.57
2023-03-21T05:25:11.651Z,4.63
2023-03-21T05:27:45.186Z,4.55
2023-03-21T05:30:16.796Z,4.57
2023-03-21T05:32:46.184Z,4.35
2023-03-21T05:35:14.219Z,4.47
2023-03-21T05:37:42.028Z,4.75
2023-03-21T05:40:10.888Z,4.57
2023-03-21T05:42:38.725Z,3.85
2023-03-21T05:45:07.478Z,4.30
2023-03-21T05:47:36.051Z,4.53
2023-03-21T05:50:05.980Z,4.43
2023-03-21T05:52:33.886Z,4.65
2023-03-21T05:55:01.822Z,4.07
2023-03-21T05:57:29.733Z,5.13
2023-03-21T05:59:57.573Z,4.13
2023-03-21T06:02:25.411Z,4.30
2023-03-21T06:04:53.225Z,4.70
2023-03-21T06:07:22.729Z,4.68
2023-03-21T06:09:50.620Z,4.47
2023-03-21T06:12:18.470Z,4.75
2023-03-21T06:14:47.001Z,4.32
2023-03-21T06:17:14.868Z,5.03
2023-03-21T06:19:42.711Z,4.13
2023-03-21T06:22:10.641Z,3.97
2023-03-21T06:24:40.051Z,4.97
2023-03-21T06:27:07.883Z,4.18
2023-03-21T06:29:35.852Z,4.80
2023-03-21T06:32:03.701Z,4.80
2023-03-21T06:34:31.590Z,4.28
2023-03-21T06:36:59.476Z,4.07
2023-03-21T06:39:27.359Z,4.75
2023-03-21T06:41:56.548Z,3.90
2023-03-21T06:44:24.531Z,3.67
2023-03-21T06:46:52.504Z,4.00
2023-03-21T06:49:20.958Z,4.47
2023-03-21T06:51:48.832Z,3.47
2023-03-21T06:54:17.868Z,4.25
2023-03-21T06:56:45.878Z,3.83
2023-03-21T06:59:15.043Z,3.78
2023-03-21T07:01:43.655Z,3.60
2023-03-21T07:04:11.897Z,3.45
2023-03-21T07:06:39.901Z,3.95
2023-03-21T07:09:07.816Z,3.55
2023-03-21T07:11:37.680Z,3.05
2023-03-21T07:14:06.426Z,3.33
2023-03-21T07:16:35.732Z,3.05
2023-03-21T07:19:03.680Z,3.28
2023-03-21T07:21:32.347Z,2.55
2023-03-21T07:24:00.334Z,3.15
2023-03-21T07:26:28.306Z,3.05
2023-03-21T07:28:56.457Z,3.08
2023-03-21T07:31:25.940Z,2.95
2023-03-21T07:33:55.391Z,3.40
2023-03-21T07:36:23.275Z,3.58
2023-03-21T07:38:51.345Z,3.28
2023-03-21T07:41:19.182Z,2.95
2023-03-21T07:43:47.017Z,2.88
2023-03-21T07:46:14.863Z,2.80
2023-03-21T07:48:42.711Z,3.38
2023-03-21T07:51:11.957Z,2.53
2023-03-21T07:53:41.885Z,2.45
2023-03-21T07:56:10.815Z,2.10
2023-03-21T07:58:38.664Z,2.00
2023-03-21T08:01:07.166Z,2.42
2023-03-21T08:03:35.086Z,2.30
2023-03-21T08:06:03.097Z,2.30
2023-03-21T08:08:32.341Z,2.17
2023-03-21T08:11:00.334Z,2.70
2023-03-21T08:13:28.254Z,2.53
2023-03-21T08:15:56.169Z,2.20
2023-03-21T08:18:24.013Z,2.28
2023-03-21T08:20:53.428Z,2.60
2023-03-21T08:23:22.369Z,1.95
2023-03-21T08:25:54.126Z,2.10
2023-03-21T08:28:22.506Z,2.20
2023-03-21T08:30:51.404Z,1.95
2023-03-21T08:33:19.443Z,2.00
2023-03-21T08:35:47.355Z,2.40
2023-03-21T08:38:16.031Z,1.85
2023-03-21T08:40:43.957Z,2.63
2023-03-21T08:43:14.924Z,1.95
2023-03-21T08:45:43.019Z,1.80
2023-03-21T08:48:11.020Z,1.70
2023-03-21T08:50:39.221Z,1.60
2023-03-21T08:53:07.141Z,1.67
2023-03-21T08:55:35.484Z,2.67
2023-03-21T08:58:03.652Z,2.60
2023-03-21T09:00:32.914Z,2.53
2023-03-21T09:03:01.406Z,3.28
2023-03-21T09:05:29.256Z,3.50
2023-03-21T09:07:57.643Z,2.30
2023-03-21T09:10:25.774Z,2.80
2023-03-21T09:12:55.360Z,2.10
2023-03-21T09:15:24.837Z,3.17
2023-03-21T09:17:55.854Z,2.25
2023-03-21T09:20:30.627Z,1.88
2023-03-21T09:22:59.681Z,1.60
2023-03-21T09:25:31.284Z,2.00
2023-03-21T09:27:59.876Z,2.00
2023-03-21T09:30:28.570Z,2.25
2023-03-21T09:32:57.871Z,2.30
2023-03-21T09:35:27.056Z,1.77
2023-03-21T09:37:57.455Z,1.90
2023-03-21T09:40:41.497Z,1.63
2023-03-21T09:43:23.404Z,1.52
2023-03-21T09:45:58.675Z,1.67
2023-03-21T09:48:37.650Z,1.85
2023-03-21T09:51:13.763Z,1.60
2023-03-21T09:53:43.575Z,1.65
2023-03-21T09:56:13.848Z,1.95
2023-03-21T09:58:46.291Z,1.73
2023-03-21T10:01:27.126Z,1.40
2023-03-21T10:03:58.882Z,1.80
2023-03-21T10:06:30.641Z,1.50
2023-03-21T10:09:01.348Z,1.17
2023-03-21T10:11:33.308Z,1.48
2023-03-21T10:14:05.406Z,1.15
2023-03-21T10:16:35.872Z,1.30
2023-03-21T10:19:12.171Z,1.13
2023-03-21T10:21:59.802Z,1.48
2023-03-21T10:24:30.814Z,1.20
2023-03-21T10:26:59.006Z,1.45
2023-03-21T10:29:31.533Z,1.50
2023-03-21T10:31:59.758Z,1.50
2023-03-21T10:34:33.879Z,1.60
2023-03-21T10:37:03.510Z,1.98
2023-03-21T10:39:36.507Z,2.00
2023-03-21T10:42:04.944Z,2.35
2023-03-21T10:44:35.864Z,1.77
2023-03-21T10:47:07.179Z,2.40
2023-03-21T10:49:56.585Z,2.03
2023-03-21T10:52:29.801Z,2.20
2023-03-21T10:55:08.747Z,2.38
2023-03-21T10:57:38.090Z,2.40
2023-03-21T11:00:14.941Z,3.33
2023-03-21T11:02:43.287Z,2.20
2023-03-21T11:05:22.515Z,2.53
2023-03-21T11:08:01.370Z,2.85
2023-03-21T11:10:31.921Z,3.28
2023-03-21T11:13:04.495Z,2.55
2023-03-21T11:15:39.222Z,3.10
2023-03-21T11:18:15.955Z,3.00
2023-03-21T11:20:50.624Z,2.80
2023-03-21T11:23:20.762Z,2.67
2023-03-21T11:25:50.885Z,2.85
2023-03-21T11:28:21.563Z,2.95
2023-03-21T11:30:55.323Z,2.67
2023-03-21T11:33:27.010Z,2.70
2023-03-21T11:36:05.084Z,3.00
2023-03-21T11:41:03.700Z,2.60
2023-03-21T11:43:33.682Z,2.60
2023-03-21T11:46:06.944Z,2.17
2023-03-21T11:48:39.024Z,2.28
2023-03-21T11:51:16.900Z,2.30
2023-03-21T11:53:50.318Z,2.28
2023-03-21T11:56:26.427Z,2.15
2023-03-21T11:59:15.885Z,2.20
2023-03-21T12:01:54.765Z,2.30
2023-03-21T12:04:36.877Z,1.92
2023-03-21T12:07:17.335Z,2.15
2023-03-21T12:09:49.372Z,2.35
2023-03-21T12:12:38.336Z,1.77
2023-03-21T12:15:13.173Z,1.58
2023-03-21T12:17:47.808Z,2.10
2023-03-21T12:20:27.327Z,1.70
2023-03-21T12:23:09.229Z,2.45
2023-03-21T12:25:43.295Z,1.75
2023-03-21T12:28:32.671Z,2.22
2023-03-21T12:31:11.621Z,2.72
2023-03-21T12:33:52.300Z,1.90
2023-03-21T12:36:38.248Z,1.90
2023-03-21T12:39:17.866Z,3.00
2023-03-21T12:41:51.537Z,2.10
2023-03-21T12:44:22.897Z,2.10
2023-03-21T12:46:55.424Z,1.80
2023-03-21T12:49:29.632Z,1.30
2023-03-21T12:52:03.666Z,1.38
2023-03-21T12:54:38.025Z,1.63
2023-03-21T12:57:11.613Z,1.63
2023-03-21T12:59:44.298Z,1.25
2023-03-21T13:02:21.477Z,1.40
2023-03-21T13:05:01.151Z,1.30
2023-03-21T13:07:32.291Z,1.17
2023-03-21T13:10:02.593Z,1.20
2023-03-21T13:12:44.245Z,0.93
2023-03-21T13:15:31.586Z,1.17
2023-03-21T13:18:06.312Z,1.80
2023-03-21T13:20:40.980Z,1.60
2023-03-21T13:23:09.641Z,2.28
2023-03-21T13:25:44.291Z,1.40
2023-03-21T13:28:21.291Z,2.15
2023-03-21T13:30:49.869Z,1.70
2023-03-21T13:33:23.995Z,1.63
2023-03-21T13:36:00.969Z,1.55
2023-03-21T13:38:30.407Z,1.80
2023-03-21T13:41:01.765Z,1.90
2023-03-21T13:43:36.252Z,1.85
2023-03-21T13:46:09.655Z,1.90
2023-03-21T13:48:59.127Z,1.88
2023-03-21T13:51:44.982Z,1.92
2023-03-21T13:54:24.116Z,2.08
2023-03-21T13:56:58.070Z,2.20
2023-03-21T13:59:44.695Z,1.85
2023-03-21T14:02:30.453Z,1.65
2023-03-21T14:05:06.633Z,1.80
2023-03-21T14:07:38.035Z,2.30
2023-03-21T14:10:18.153Z,1.85
2023-03-21T14:12:49.280Z,1.75
2023-03-21T14:15:21.840Z,1.65
2023-03-21T14:17:54.974Z,1.92
2023-03-21T14:20:26.329Z,1.80
2023-03-21T14:22:55.002Z,1.50
2023-03-21T14:25:31.275Z,1.60
2023-03-21T14:28:07.565Z,2.10
2023-03-21T14:30:39.325Z,1.50
2023-03-21T14:33:16.775Z,1.42
2023-03-21T14:35:47.264Z,1.30
2023-03-21T14:38:22.761Z,1.52
2023-03-21T14:40:54.842Z,1.55
2023-03-21T14:43:24.961Z,1.45
2023-03-21T14:45:55.387Z,1.40
2023-03-21T14:48:30.787Z,1.55
2023-03-21T14:51:02.370Z,1.10
2023-03-21T14:53:32.454Z,1.40
2023-03-21T14:56:06.475Z,1.35
2023-03-21T14:58:40.245Z,1.25
2023-03-21T15:01:14.783Z,0.70
2023-03-21T15:03:45.655Z,0.70
2023-03-21T15:06:15.931Z,1.00
2023-03-21T15:08:55.702Z,0.82
2023-03-21T15:11:32.025Z,0.80
2023-03-21T15:14:03.840Z,0.50
2023-03-21T15:16:33.141Z,0.60
2023-03-21T15:19:05.104Z,0.75
2023-03-21T15:21:36.633Z,1.00
2023-03-21T15:24:13.463Z,0.63
2023-03-21T15:26:45.050Z,0.57
2023-03-21T15:29:16.098Z,0.85
2023-03-21T15:31:44.995Z,0.80
2023-03-21T15:34:21.610Z,0.80
2023-03-21T15:36:51.916Z,0.70
2023-03-21T15:39:23.692Z,0.98
2023-03-21T15:42:03.578Z,1.35
2023-03-21T15:44:34.479Z,2.22
2023-03-21T15:47:02.614Z,2.67
2023-03-21T15:49:32.817Z,2.20
2023-03-21T15:52:06.594Z,2.25
2023-03-21T15:54:39.926Z,2.35
2023-03-21T15:57:22.650Z,2.28
2023-03-21T15:59:56.901Z,1.83
2023-03-21T16:02:29.371Z,2.20
2023-03-21T16:04:59.074Z,2.00
2023-03-21T16:07:27.409Z,1.92
2023-03-21T16:10:00.792Z,2.28
2023-03-21T16:12:28.762Z,2.13
2023-03-21T16:14:57.993Z,1.92
2023-03-21T16:17:32.931Z,2.70
2023-03-21T16:20:01.388Z,2.72
2023-03-21T16:22:34.853Z,2.67
2023-03-21T16:25:02.830Z,2.70
2023-03-21T16:27:30.744Z,2.92
2023-03-21T16:30:00.167Z,2.78
2023-03-21T16:32:28.710Z,2.33
2023-03-21T16:34:56.724Z,2.55
2023-03-21T16:37:24.585Z,2.45
2023-03-21T16:39:52.508Z,2.50
2023-03-21T16:42:20.503Z,1.73
2023-03-21T16:44:48.332Z,2.28
2023-03-21T16:47:19.404Z,2.20
2023-03-21T16:49:47.645Z,2.22
2023-03-21T16:52:15.915Z,2.00
2023-03-21T16:54:44.158Z,2.50
2023-03-21T16:57:27.551Z,2.28
2023-03-21T16:59:55.743Z,2.05
2023-03-21T17:02:25.934Z,2.15
2023-03-21T17:04:53.795Z,2.00
2023-03-21T17:07:21.620Z,2.38
2023-03-21T17:09:49.652Z,2.60
2023-03-21T17:12:17.911Z,2.17
2023-03-21T17:14:46.438Z,2.00
2023-03-21T17:17:16.128Z,2.40
2023-03-21T17:19:46.544Z,2.40
2023-03-21T17:22:14.732Z,2.70
2023-03-21T17:24:42.698Z,2.50
2023-03-21T17:27:15.657Z,2.17
2023-03-21T17:29:43.564Z,3.03
2023-03-21T17:32:11.463Z,2.10
2023-03-21T17:34:39.320Z,2.60
2023-03-21T17:37:12.563Z,2.72
2023-03-21T17:39:42.895Z,2.92
2023-03-21T17:42:15.773Z,3.08
2023-03-21T17:44:43.607Z,2.53
2023-03-21T17:47:11.745Z,2.70
2023-03-21T17:49:39.558Z,2.53
2023-03-21T17:52:08.721Z,2.70
2023-03-21T17:54:36.566Z,2.00
2023-03-21T17:57:04.589Z,2.58
2023-03-21T17:59:32.432Z,2.50
2023-03-21T18:02:00.613Z,2.80
2023-03-21T18:04:28.500Z,2.63
2023-03-21T18:06:59.828Z,2.90
2023-03-21T18:09:29.930Z,2.78
2023-03-21T18:11:57.802Z,2.10
2023-03-21T18:14:28.889Z,2.50
2023-03-21T18:16:58.150Z,2.60
2023-03-21T18:19:26.698Z,2.35
2023-03-21T18:21:54.543Z,2.85
2023-03-21T18:24:22.348Z,2.83
2023-03-21T18:26:51.828Z,2.70
2023-03-21T18:30:19.766Z,2.80
2023-03-21T18:32:08.990Z,3.03
2023-03-21T18:34:39.317Z,2.58
2023-03-21T18:37:08.406Z,2.50
2023-03-21T18:39:38.011Z,9.13
2023-03-21T18:42:07.567Z,14.88
2023-03-21T18:44:45.516Z,9.30
2023-03-21T18:47:13.982Z,7.72
2023-03-21T18:50:12.784Z,6.28
2023-03-21T18:52:29.860Z,3.90
2023-03-21T18:54:58.541Z,3.83
2023-03-21T18:57:36.529Z,4.13
2023-03-21T19:00:12.507Z,13.00
2023-03-21T19:02:45.523Z,14.52
2023-03-21T19:05:14.793Z,5.35
2023-03-21T19:07:42.888Z,4.95
2023-03-21T19:10:17.988Z,4.82
2023-03-21T19:12:48.226Z,3.63
2023-03-21T19:15:18.593Z,3.10
2023-03-21T19:18:30.238Z,2.70
2023-03-21T19:20:34.878Z,3.03
2023-03-21T19:23:03.245Z,3.28
2023-03-21T19:25:31.171Z,3.20
2023-03-21T19:28:00.697Z,2.72
2023-03-21T19:30:28.632Z,4.22
2023-03-21T19:32:56.519Z,3.63
2023-03-21T19:35:25.218Z,3.35
2023-03-21T19:37:53.191Z,3.85
2023-03-21T19:40:21.496Z,3.38
2023-03-21T19:42:49.549Z,3.28
2023-03-21T19:45:18.938Z,2.78
2023-03-21T19:47:47.004Z,3.67
2023-03-21T19:50:47.276Z,3.38
2023-03-21T19:53:02.818Z,2.65
2023-03-21T19:55:30.849Z,3.55
2023-03-21T19:57:59.255Z,3.00
2023-03-21T20:00:28.540Z,3.00
2023-03-21T20:02:56.795Z,2.83
2023-03-21T20:05:25.610Z,3.10
2023-03-21T20:07:55.390Z,2.83
2023-03-21T20:10:23.897Z,2.72
2023-03-21T20:12:51.799Z,2.55
2023-03-21T20:15:21.880Z,2.75
2023-03-21T20:17:52.220Z,2.50
2023-03-21T20:20:20.372Z,2.53
2023-03-21T20:23:07.840Z,2.65
2023-03-21T20:25:36.731Z,2.60
2023-03-21T20:28:25.860Z,2.70
2023-03-21T20:30:56.675Z,2.50
2023-03-21T20:33:26.411Z,2.25
2023-03-21T20:38:47.493Z,2.20
2023-03-21T20:41:15.854Z,1.92
2023-03-21T20:44:39.164Z,2.40
2023-03-21T20:46:31.817Z,2.00
2023-03-21T20:49:01.121Z,2.13
2023-03-21T20:54:17.718Z,2.20
2023-03-21T20:56:45.869Z,2.20
2023-03-21T20:59:26.119Z,2.35
2023-03-21T21:01:56.142Z,2.38
2023-03-21T21:04:46.849Z,2.45
2023-03-21T21:07:16.433Z,2.33
2023-03-21T21:09:44.948Z,2.03
2023-03-21T21:12:14.258Z,2.40
2023-03-21T21:14:43.554Z,2.33
2023-03-21T21:17:54.161Z,2.47
2023-03-21T21:20:02.302Z,2.30
2023-03-21T21:22:30.295Z,2.35
2023-03-21T21:24:58.152Z,2.50
2023-03-21T21:27:26.022Z,2.67
2023-03-21T21:29:53.861Z,3.22
2023-03-21T21:32:21.723Z,3.58
2023-03-21T21:34:49.813Z,2.80
2023-03-21T21:37:19.024Z,3.75
2023-03-21T21:39:46.863Z,3.83
2023-03-21T21:42:15.157Z,4.80
2023-03-21T21:44:44.960Z,4.20
2023-03-21T21:47:12.994Z,4.57
2023-03-21T21:49:41.190Z,5.00
2023-03-21T21:52:13.242Z,4.43
2023-03-21T21:54:45.662Z,4.30
2023-03-21T21:57:14.515Z,4.30
2023-03-21T21:59:42.394Z,3.88
2023-03-21T22:02:13.780Z,4.15
2023-03-21T22:04:41.680Z,4.55
2023-03-21T22:07:14.243Z,4.13
2023-03-21T22:09:44.616Z,4.00
2023-03-21T22:12:12.534Z,4.53
2023-03-21T22:14:40.428Z,4.30
2023-03-21T22:17:08.381Z,4.35
2023-03-21T22:19:37.416Z,4.13
2023-03-21T22:22:07.058Z,4.25
2023-03-21T22:24:35.793Z,3.35
2023-03-21T22:27:05.478Z,3.72
2023-03-21T22:29:33.601Z,3.67
2023-03-21T22:32:01.498Z,3.35
2023-03-21T22:34:29.417Z,3.13
2023-03-21T22:36:57.650Z,3.05
2023-03-21T22:39:26.390Z,4.45
2023-03-21T22:41:54.939Z,3.22
2023-03-21T22:44:24.158Z,3.33
2023-03-21T22:46:52.018Z,3.08
2023-03-21T22:49:19.843Z,3.42
2023-03-21T22:51:47.723Z,3.33
2023-03-21T22:54:15.851Z,3.15
2023-03-21T22:56:43.703Z,3.08
2023-03-21T22:59:11.607Z,3.50
2023-03-21T23:01:40.987Z,3.05
2023-03-21T23:04:09.046Z,2.60
2023-03-21T23:06:37.632Z,2.90
2023-03-21T23:09:05.554Z,3.10
2023-03-21T23:11:33.618Z,2.70
2023-03-21T23:14:07.805Z,2.45
2023-03-21T23:16:38.159Z,3.03
2023-03-21T23:19:08.902Z,2.75
2023-03-21T23:21:38.513Z,2.47
2023-03-21T23:24:07.580Z,2.95
2023-03-21T23:26:36.083Z,2.80
2023-03-21T23:29:05.229Z,3.40
2023-03-21T23:31:33.876Z,2.90
2023-03-21T23:34:02.089Z,2.90
2023-03-21T23:36:31.942Z,3.00
2023-03-21T23:38:59.798Z,3.10
2023-03-21T23:41:27.742Z,3.85
2023-03-21T23:43:55.765Z,3.20
2023-03-21T23:46:23.748Z,2.80
2023-03-21T23:48:51.681Z,3.45
2023-03-21T23:51:19.887Z,3.08
2023-03-21T23:53:49.808Z,2.90
2023-03-21T23:56:19.531Z,3.17
2023-03-21T23:58:48.282Z,2.92
